createdAt,value
2022-09-11T00:00:55.563Z,73.01
2022-09-11T00:03:37.700Z,73.00
2022-09-11T00:06:11.812Z,72.68
2022-09-11T00:08:44.578Z,72.82
2022-09-11T00:11:18.530Z,72.66
2022-09-11T00:13:52.102Z,72.80
2022-09-11T00:16:26.960Z,72.63
2022-09-11T00:19:02.187Z,72.55
2022-09-11T00:21:33.872Z,72.57
2022-09-11T00:24:07.636Z,72.68
2022-09-11T00:26:40.003Z,72.74
2022-09-11T00:29:12.140Z,72.59
2022-09-11T00:31:43.912Z,72.55
2022-09-11T00:34:16.535Z,72.49
2022-09-11T00:36:48.386Z,72.51
2022-09-11T00:39:21.419Z,72.84
2022-09-11T00:41:53.200Z,72.70
2022-09-11T00:45:02.565Z,72.73
2022-09-11T00:47:34.767Z,72.79
2022-09-11T00:50:23.869Z,72.44
2022-09-11T00:52:59.226Z,72.38
2022-09-11T00:55:35.546Z,72.26
2022-09-11T00:58:09.793Z,72.44
2022-09-11T01:00:46.739Z,72.38
2022-09-11T01:03:19.555Z,72.37
2022-09-11T01:05:53.494Z,72.55
2022-09-11T01:08:25.576Z,72.36
2022-09-11T01:11:11.827Z,72.43
2022-09-11T01:13:49.472Z,72.23
2022-09-11T01:16:29.398Z,72.46
2022-09-11T01:19:08.742Z,72.63
2022-09-11T01:21:55.091Z,72.69
2022-09-11T01:24:45.339Z,72.96
2022-09-11T01:27:42.165Z,72.82
2022-09-11T01:30:16.216Z,73.17
2022-09-11T01:33:03.568Z,73.22
2022-09-11T01:35:43.175Z,73.24
2022-09-11T01:38:23.033Z,73.38
2022-09-11T01:40:57.669Z,73.51
2022-09-11T01:43:31.391Z,73.81
2022-09-11T01:46:07.343Z,73.85
2022-09-11T01:48:43.109Z,73.65
2022-09-11T01:51:20.133Z,73.93
2022-09-11T01:53:55.486Z,73.88
2022-09-11T01:56:30.715Z,73.87
2022-09-11T01:59:10.087Z,73.80
2022-09-11T02:01:51.263Z,73.74
2022-09-11T02:04:37.451Z,73.87
2022-09-11T02:07:12.137Z,73.97
2022-09-11T02:09:48.618Z,74.10
2022-09-11T02:12:25.651Z,74.04
2022-09-11T02:15:00.998Z,73.97
2022-09-11T02:17:42.945Z,73.93
2022-09-11T02:20:21.832Z,74.14
2022-09-11T02:22:53.746Z,74.24
2022-09-11T02:25:25.629Z,74.12
2022-09-11T02:27:57.544Z,74.15
2022-09-11T02:30:32.497Z,74.17
2022-09-11T02:33:04.466Z,74.32
2022-09-11T02:35:48.345Z,74.24
2022-09-11T02:38:26.765Z,74.11
2022-09-11T02:41:11.955Z,73.98
2022-09-11T02:43:57.796Z,74.13
2022-09-11T02:46:55.558Z,74.20
2022-09-11T02:49:39.191Z,74.17
2022-09-11T02:52:24.366Z,73.99
2022-09-11T02:55:05.973Z,74.12
2022-09-11T02:57:43.853Z,74.17
2022-09-11T03:00:20.211Z,74.73
2022-09-11T03:02:55.288Z,74.71
2022-09-11T03:05:28.467Z,74.80
2022-09-11T03:08:01.378Z,74.93
2022-09-11T03:10:33.426Z,74.96
2022-09-11T03:13:07.311Z,75.18
2022-09-11T03:15:39.049Z,74.96
2022-09-11T03:18:11.718Z,74.97
2022-09-11T03:20:47.978Z,74.99
2022-09-11T03:23:22.912Z,74.85
2022-09-11T03:25:55.657Z,74.73
2022-09-11T03:28:27.486Z,74.64
2022-09-11T03:30:59.350Z,74.39
2022-09-11T03:33:32.734Z,74.60
2022-09-11T03:36:04.823Z,74.50
2022-09-11T03:38:37.547Z,74.71
2022-09-11T03:41:10.859Z,74.70
2022-09-11T03:43:43.866Z,74.80
2022-09-11T03:46:15.663Z,74.72
2022-09-11T03:48:47.453Z,74.94
2022-09-11T03:51:19.295Z,74.87
2022-09-11T03:53:52.701Z,75.30
2022-09-11T03:56:24.711Z,75.24
2022-09-11T03:59:00.249Z,75.50
2022-09-11T04:01:32.044Z,75.59
2022-09-11T04:04:05.608Z,75.51
2022-09-11T04:06:37.371Z,75.94
2022-09-11T04:09:09.355Z,75.97
2022-09-11T04:11:41.194Z,76.27
2022-09-11T04:14:19.116Z,77.40
2022-09-11T04:16:51.202Z,76.30
2022-09-11T04:19:23.777Z,76.49
2022-09-11T04:21:56.088Z,76.52
2022-09-11T04:24:31.293Z,76.29
2022-09-11T04:27:03.357Z,76.09
2022-09-11T04:29:35.802Z,76.08
2022-09-11T04:32:08.234Z,76.24
2022-09-11T04:34:40.881Z,76.28
2022-09-11T04:37:13.043Z,76.21
2022-09-11T04:39:45.734Z,76.32
2022-09-11T04:42:17.582Z,76.24
2022-09-11T04:44:50.165Z,76.34
2022-09-11T04:47:21.850Z,76.23
2022-09-11T04:49:54.368Z,76.36
2022-09-11T04:52:26.153Z,76.47
2022-09-11T04:54:57.885Z,76.26
2022-09-11T04:57:32.285Z,76.38
2022-09-11T05:00:12.898Z,76.40
2022-09-11T05:02:44.859Z,76.30
2022-09-11T05:05:16.813Z,76.28
2022-09-11T05:07:51.723Z,76.51
2022-09-11T05:10:26.693Z,76.48
2022-09-11T05:13:00.094Z,76.39
2022-09-11T05:15:33.112Z,76.39
2022-09-11T05:18:05.036Z,76.35
2022-09-11T05:20:40.526Z,76.21
2022-09-11T05:23:13.643Z,76.14
2022-09-11T05:25:45.699Z,76.12
2022-09-11T05:28:17.817Z,76.31
2022-09-11T05:30:52.039Z,76.14
2022-09-11T05:33:24.822Z,75.98
2022-09-11T05:36:04.520Z,76.24
2022-09-11T05:38:37.654Z,76.10
2022-09-11T05:41:14.281Z,76.16
2022-09-11T05:43:46.064Z,76.36
2022-09-11T05:46:19.683Z,76.21
2022-09-11T05:48:51.469Z,76.14
2022-09-11T05:51:25.636Z,76.19
2022-09-11T05:53:58.727Z,76.11
2022-09-11T05:56:30.866Z,75.70
2022-09-11T05:59:02.688Z,75.88
2022-09-11T06:01:34.470Z,75.90
2022-09-11T06:04:09.702Z,75.73
2022-09-11T06:06:41.473Z,75.63
2022-09-11T06:09:13.187Z,75.57
2022-09-11T06:11:45.740Z,75.39
2022-09-11T06:14:17.461Z,75.38
2022-09-11T06:16:51.113Z,75.39
2022-09-11T06:19:22.919Z,75.07
2022-09-11T06:21:54.672Z,75.15
2022-09-11T06:24:26.360Z,75.21
2022-09-11T06:26:59.206Z,75.10
2022-09-11T06:29:32.713Z,74.90
2022-09-11T06:32:04.745Z,74.86
2022-09-11T06:34:37.789Z,75.05
2022-09-11T06:37:09.504Z,74.79
2022-09-11T06:39:41.225Z,74.91
2022-09-11T06:42:14.746Z,74.68
2022-09-11T06:44:50.150Z,74.57
2022-09-11T06:47:23.069Z,74.29
2022-09-11T06:49:54.840Z,74.25
2022-09-11T06:52:27.454Z,74.40
2022-09-11T06:54:59.194Z,73.79
2022-09-11T06:57:31.225Z,73.68
2022-09-11T07:00:03.144Z,73.60
2022-09-11T07:02:35.010Z,73.76
2022-09-11T07:05:10.883Z,73.04
2022-09-11T07:07:44.174Z,73.07
2022-09-11T07:10:17.709Z,73.23
2022-09-11T07:12:50.043Z,73.14
2022-09-11T07:15:21.863Z,73.56
2022-09-11T07:17:56.134Z,73.55
2022-09-11T07:20:27.988Z,73.52
2022-09-11T07:23:01.213Z,73.54
2022-09-11T07:25:32.930Z,73.40
2022-09-11T07:28:05.300Z,73.40
2022-09-11T07:30:37.041Z,73.45
2022-09-11T07:33:08.922Z,73.17
2022-09-11T07:35:40.622Z,72.78
2022-09-11T07:38:14.117Z,72.64
2022-09-11T07:40:45.990Z,73.06
2022-09-11T07:43:19.268Z,72.68
2022-09-11T07:45:53.551Z,72.73
2022-09-11T07:48:25.477Z,72.33
2022-09-11T07:51:02.405Z,72.27
2022-09-11T07:53:37.538Z,72.37
2022-09-11T07:56:11.301Z,72.22
2022-09-11T07:58:44.308Z,71.52
2022-09-11T08:01:17.988Z,71.13
2022-09-11T08:03:54.253Z,71.54
2022-09-11T08:06:27.186Z,71.16
2022-09-11T08:09:01.821Z,70.85
2022-09-11T08:11:38.429Z,71.01
2022-09-11T08:14:11.817Z,70.80
2022-09-11T08:16:44.069Z,70.46
2022-09-11T08:19:20.345Z,70.38
2022-09-11T08:21:52.671Z,70.49
2022-09-11T08:24:24.832Z,70.07
2022-09-11T08:26:57.195Z,69.29
2022-09-11T08:29:28.844Z,68.98
2022-09-11T08:32:02.493Z,69.40
2022-09-11T08:34:34.342Z,69.36
2022-09-11T08:37:06.116Z,68.81
2022-09-11T08:39:38.059Z,68.38
2022-09-11T08:42:14.386Z,68.43
2022-09-11T08:44:50.113Z,68.91
2022-09-11T08:47:25.994Z,68.45
2022-09-11T08:50:02.450Z,67.36
2022-09-11T08:52:40.908Z,66.24
2022-09-11T08:55:17.314Z,65.92
2022-09-11T08:57:57.045Z,66.09
2022-09-11T09:00:37.900Z,65.69
2022-09-11T09:03:25.904Z,65.51
2022-09-11T09:06:05.189Z,64.71
2022-09-11T09:08:51.821Z,64.45
2022-09-11T09:11:37.099Z,65.26
2022-09-11T09:14:24.752Z,63.53
2022-09-11T09:17:00.990Z,63.22
2022-09-11T09:19:39.443Z,63.86
2022-09-11T09:22:21.590Z,62.80
2022-09-11T09:24:56.081Z,64.32
2022-09-11T09:27:31.353Z,64.03
2022-09-11T09:30:14.748Z,63.73
2022-09-11T09:32:53.212Z,63.32
2022-09-11T09:35:28.701Z,63.04
2022-09-11T09:38:00.493Z,62.36
2022-09-11T09:40:34.576Z,62.44
2022-09-11T09:43:24.094Z,61.33
2022-09-11T09:46:07.526Z,61.02
2022-09-11T09:48:41.756Z,59.38
2022-09-11T09:51:16.001Z,61.09
2022-09-11T09:53:51.560Z,61.47
2022-09-11T09:56:25.894Z,58.91
2022-09-11T09:59:02.924Z,60.06
2022-09-11T10:01:50.152Z,58.86
2022-09-11T10:04:24.655Z,58.46
2022-09-11T10:07:10.703Z,58.76
2022-09-11T10:09:50.245Z,60.53
2022-09-11T10:12:27.654Z,58.48
2022-09-11T10:15:01.681Z,59.56
2022-09-11T10:17:38.457Z,59.20
2022-09-11T10:20:24.640Z,60.27
2022-09-11T10:22:57.495Z,58.17
2022-09-11T10:25:30.786Z,58.07
2022-09-11T10:28:09.106Z,59.09
2022-09-11T10:30:46.145Z,58.20
2022-09-11T10:33:26.745Z,58.64
2022-09-11T10:36:00.547Z,59.15
2022-09-11T10:38:41.134Z,58.94
2022-09-11T10:41:21.672Z,59.20
2022-09-11T10:43:58.911Z,59.52
2022-09-11T10:46:39.664Z,57.69
2022-09-11T10:49:19.704Z,58.28
2022-09-11T10:52:17.661Z,56.17
2022-09-11T10:55:00.712Z,56.87
2022-09-11T10:57:36.084Z,56.81
2022-09-11T11:00:20.225Z,56.90
2022-09-11T11:02:56.570Z,56.97
2022-09-11T11:05:38.639Z,57.33
2022-09-11T11:08:38.558Z,54.39
2022-09-11T11:11:24.341Z,56.19
2022-09-11T11:14:15.445Z,56.60
2022-09-11T11:16:59.697Z,56.39
2022-09-11T11:19:47.483Z,56.11
2022-09-11T11:22:34.515Z,54.87
2022-09-11T11:25:14.446Z,55.09
2022-09-11T11:28:03.326Z,54.59
2022-09-11T11:30:46.155Z,54.44
2022-09-11T11:33:35.509Z,54.14
2022-09-11T11:36:14.481Z,53.99
2022-09-11T11:38:52.972Z,54.20
2022-09-11T11:41:29.389Z,53.31
2022-09-11T11:44:07.571Z,53.60
2022-09-11T11:46:46.154Z,52.64
2022-09-11T11:49:23.129Z,52.95
2022-09-11T11:52:06.723Z,52.79
2022-09-11T11:54:43.281Z,52.95
2022-09-11T11:57:20.739Z,51.25
2022-09-11T11:59:58.287Z,51.68
2022-09-11T12:02:39.421Z,52.50
2022-09-11T12:05:17.259Z,52.05
2022-09-11T12:07:49.562Z,52.79
2022-09-11T12:10:38.041Z,52.75
2022-09-11T12:13:14.022Z,52.04
2022-09-11T12:16:12.125Z,52.84
2022-09-11T12:19:01.349Z,52.44
2022-09-11T12:21:42.592Z,53.45
2022-09-11T12:24:24.534Z,54.13
2022-09-11T12:27:27.086Z,53.78
2022-09-11T12:30:15.603Z,54.24
2022-09-11T12:32:49.849Z,54.28
2022-09-11T12:35:29.004Z,54.38
2022-09-11T12:38:05.505Z,54.81
2022-09-11T12:40:54.011Z,55.29
2022-09-11T12:43:47.655Z,55.60
2022-09-11T12:47:15.099Z,55.81
2022-09-11T12:49:58.141Z,55.15
2022-09-11T12:52:42.904Z,55.06
2022-09-11T12:55:33.387Z,55.25
2022-09-11T12:58:08.216Z,55.14
2022-09-11T13:00:44.317Z,54.84
2022-09-11T13:03:21.911Z,54.44
2022-09-11T13:06:00.109Z,53.79
2022-09-11T13:08:37.577Z,54.41
2022-09-11T13:11:40.544Z,53.77
2022-09-11T13:14:49.426Z,53.66
2022-09-11T13:17:30.481Z,53.83
2022-09-11T13:20:26.863Z,53.86
2022-09-11T13:23:18.495Z,54.17
2022-09-11T13:25:50.426Z,54.87
2022-09-11T13:28:27.112Z,54.81
2022-09-11T13:31:04.255Z,54.12
2022-09-11T13:33:36.047Z,54.34
2022-09-11T13:36:14.475Z,53.97
2022-09-11T13:38:50.063Z,54.04
2022-09-11T13:41:26.018Z,54.50
2022-09-11T13:44:00.216Z,54.73
2022-09-11T13:46:33.559Z,54.73
2022-09-11T13:49:32.763Z,54.26
2022-09-11T13:52:07.602Z,54.44
2022-09-11T13:54:42.998Z,54.10
2022-09-11T13:57:21.086Z,54.56
2022-09-11T13:59:57.168Z,54.53
2022-09-11T14:02:41.732Z,54.56
2022-09-11T14:05:17.875Z,54.06
2022-09-11T14:07:56.948Z,54.10
2022-09-11T14:10:32.292Z,53.81
2022-09-11T14:13:18.410Z,53.63
2022-09-11T14:15:55.056Z,53.78
2022-09-11T14:18:34.244Z,53.86
2022-09-11T14:21:13.830Z,54.54
2022-09-11T14:23:48.631Z,54.46
2022-09-11T14:26:22.225Z,55.07
2022-09-11T14:29:03.355Z,55.61
2022-09-11T14:31:38.323Z,56.69
2022-09-11T14:34:28.433Z,57.86
2022-09-11T14:37:07.963Z,59.18
2022-09-11T14:39:43.226Z,59.92
2022-09-11T14:42:21.320Z,60.20
2022-09-11T14:44:53.452Z,60.78
2022-09-11T14:47:27.045Z,61.20
2022-09-11T14:49:59.221Z,61.90
2022-09-11T14:52:32.324Z,63.02
2022-09-11T14:55:04.485Z,62.85
2022-09-11T14:57:37.096Z,64.40
2022-09-11T15:00:14.255Z,64.61
2022-09-11T15:02:46.516Z,63.35
2022-09-11T15:05:21.906Z,63.55
2022-09-11T15:07:54.136Z,63.63
2022-09-11T15:10:28.940Z,63.59
2022-09-11T15:13:00.779Z,63.23
2022-09-11T15:15:33.531Z,63.19
2022-09-11T15:18:06.078Z,63.35
2022-09-11T15:20:40.003Z,63.27
2022-09-11T15:23:12.058Z,63.13
2022-09-11T15:25:43.982Z,62.99
2022-09-11T15:28:15.844Z,63.07
2022-09-11T15:30:58.226Z,62.91
2022-09-11T15:33:33.233Z,62.94
2022-09-11T15:36:06.965Z,63.27
2022-09-11T15:38:38.837Z,63.19
2022-09-11T15:41:12.588Z,63.16
2022-09-11T15:43:46.343Z,63.36
2022-09-11T15:46:18.705Z,63.25
2022-09-11T15:48:51.151Z,63.35
2022-09-11T15:51:24.788Z,63.01
2022-09-11T15:54:02.640Z,63.18
2022-09-11T15:56:35.657Z,63.23
2022-09-11T15:59:07.454Z,63.16
2022-09-11T16:01:39.832Z,62.93
2022-09-11T16:04:13.848Z,63.18
2022-09-11T16:06:49.391Z,62.80
2022-09-11T16:09:23.450Z,62.78
2022-09-11T16:11:57.026Z,62.64
2022-09-11T16:14:30.346Z,62.90
2022-09-11T16:17:05.668Z,62.85
2022-09-11T16:19:38.875Z,63.21
2022-09-11T16:22:11.187Z,62.87
2022-09-11T16:24:43.688Z,62.96
2022-09-11T16:27:15.545Z,62.96
2022-09-11T16:30:20.642Z,63.44
2022-09-11T16:32:41.486Z,63.30
2022-09-11T16:35:13.986Z,63.17
2022-09-11T16:37:45.982Z,63.12
2022-09-11T16:40:21.606Z,63.32
2022-09-11T16:42:57.789Z,63.35
2022-09-11T16:45:29.852Z,63.16
2022-09-11T16:48:05.100Z,63.26
2022-09-11T16:50:37.080Z,63.14
2022-09-11T16:53:10.300Z,63.05
2022-09-11T16:55:42.726Z,63.28
2022-09-11T16:58:14.803Z,63.37
2022-09-11T17:00:47.304Z,62.94
2022-09-11T17:03:19.528Z,63.34
2022-09-11T17:05:52.535Z,63.19
2022-09-11T17:08:24.688Z,63.10
2022-09-11T17:10:59.842Z,63.31
2022-09-11T17:13:31.839Z,63.20
2022-09-11T17:16:06.885Z,63.14
2022-09-11T17:18:39.489Z,63.62
2022-09-11T17:21:12.539Z,63.90
2022-09-11T17:23:45.045Z,64.25
2022-09-11T17:26:18.038Z,64.28
2022-09-11T17:28:51.159Z,64.41
2022-09-11T17:31:23.759Z,64.35
2022-09-11T17:33:56.205Z,64.81
2022-09-11T17:36:28.161Z,64.91
2022-09-11T17:38:59.909Z,64.72
2022-09-11T17:41:31.655Z,64.75
2022-09-11T17:44:03.691Z,64.89
2022-09-11T17:46:36.427Z,64.95
2022-09-11T17:49:08.855Z,65.00
2022-09-11T17:51:40.678Z,65.19
2022-09-11T17:54:12.560Z,65.24
2022-09-11T17:56:44.368Z,65.48
2022-09-11T17:59:16.271Z,65.38
2022-09-11T18:01:48.678Z,65.50
2022-09-11T18:04:20.794Z,65.48
2022-09-11T18:06:53.005Z,65.56
2022-09-11T18:09:25.125Z,65.41
2022-09-11T18:11:57.075Z,65.60
2022-09-11T18:14:29.027Z,65.59
2022-09-11T18:17:00.996Z,65.72
2022-09-11T18:19:33.518Z,65.50
2022-09-11T18:22:06.283Z,65.68
2022-09-11T18:24:39.909Z,65.84
2022-09-11T18:27:12.496Z,65.83
2022-09-11T18:29:44.502Z,65.94
2022-09-11T18:32:16.354Z,65.95
2022-09-11T18:34:49.852Z,65.98
2022-09-11T18:37:22.159Z,66.15
2022-09-11T18:39:54.029Z,66.17
2022-09-11T18:42:26.034Z,66.11
2022-09-11T18:45:03.081Z,66.13
2022-09-11T18:47:35.128Z,66.19
2022-09-11T18:50:19.634Z,66.20
2022-09-11T18:52:52.204Z,66.30
2022-09-11T18:55:24.173Z,66.09
2022-09-11T18:57:56.309Z,66.31
2022-09-11T19:00:31.478Z,66.26
2022-09-11T19:03:03.400Z,66.36
2022-09-11T19:05:35.480Z,66.35
2022-09-11T19:08:07.407Z,66.50
2022-09-11T19:10:41.102Z,66.35
2022-09-11T19:13:13.452Z,66.57
2022-09-11T19:15:47.040Z,66.52
2022-09-11T19:18:19.080Z,66.51
2022-09-11T19:21:03.240Z,66.83
2022-09-11T19:23:37.534Z,66.75
2022-09-11T19:26:13.309Z,66.98
2022-09-11T19:28:47.109Z,66.91
2022-09-11T19:31:21.687Z,66.93
2022-09-11T19:33:54.739Z,67.20
2022-09-11T19:36:29.045Z,67.22
2022-09-11T19:39:01.374Z,67.19
2022-09-11T19:41:34.895Z,67.30
2022-09-11T19:44:09.228Z,67.25
2022-09-11T19:46:43.180Z,67.17
2022-09-11T19:49:15.266Z,67.40
2022-09-11T19:51:47.854Z,67.21
2022-09-11T19:54:19.611Z,67.36
2022-09-11T19:56:52.032Z,67.26
2022-09-11T19:59:24.111Z,67.33
2022-09-11T20:01:56.961Z,67.30
2022-09-11T20:04:28.886Z,67.33
2022-09-11T20:07:00.648Z,67.09
2022-09-11T20:09:32.823Z,67.16
2022-09-11T20:12:06.609Z,67.14
2022-09-11T20:14:42.399Z,67.08
2022-09-11T20:17:14.638Z,67.12
2022-09-11T20:19:54.786Z,67.14
2022-09-11T20:22:27.491Z,67.35
2022-09-11T20:25:00.511Z,67.26
2022-09-11T20:27:33.600Z,67.35
2022-09-11T20:30:04.768Z,67.36
2022-09-11T20:32:40.743Z,67.42
2022-09-11T20:35:12.685Z,67.26
2022-09-11T20:37:44.501Z,67.32
2022-09-11T20:40:16.288Z,67.30
2022-09-11T20:42:48.063Z,67.19
2022-09-11T20:45:19.886Z,67.42
2022-09-11T20:47:53.592Z,67.31
2022-09-11T20:50:25.356Z,67.21
2022-09-11T20:52:57.860Z,67.29
2022-09-11T20:55:29.611Z,67.39
2022-09-11T20:58:02.127Z,67.39
2022-09-11T21:00:33.970Z,67.52
2022-09-11T21:03:06.717Z,67.44
2022-09-11T21:05:39.453Z,67.51
2022-09-11T21:08:11.254Z,67.50
2022-09-11T21:10:42.972Z,67.56
2022-09-11T21:13:15.597Z,67.69
2022-09-11T21:15:49.214Z,67.75
2022-09-11T21:18:21.096Z,67.79
2022-09-11T21:20:57.237Z,67.88
2022-09-11T21:23:29.785Z,68.04
2022-09-11T21:26:01.590Z,68.04
2022-09-11T21:28:33.381Z,68.06
2022-09-11T21:31:05.429Z,68.04
2022-09-11T21:33:39.276Z,68.30
2022-09-11T21:36:11.126Z,68.24
2022-09-11T21:38:42.989Z,68.13
2022-09-11T21:41:16.149Z,68.23
2022-09-11T21:43:48.452Z,68.38
2022-09-11T21:46:20.192Z,68.33
2022-09-11T21:48:52.147Z,68.60
2022-09-11T21:51:24.129Z,68.64
2022-09-11T21:54:02.365Z,69.07
2022-09-11T21:56:35.618Z,69.09
2022-09-11T21:59:07.361Z,69.08
2022-09-11T22:01:39.201Z,69.21
2022-09-11T22:04:11.855Z,69.44
2022-09-11T22:06:43.669Z,69.20
2022-09-11T22:09:20.391Z,69.34
2022-09-11T22:11:53.385Z,69.81
2022-09-11T22:14:28.267Z,70.36
2022-09-11T22:16:59.992Z,70.08
2022-09-11T22:19:31.840Z,70.07
2022-09-11T22:22:03.579Z,70.23
2022-09-11T22:24:36.155Z,70.62
2022-09-11T22:27:08.870Z,70.82
2022-09-11T22:29:45.123Z,71.03
2022-09-11T22:32:18.763Z,71.34
2022-09-11T22:34:51.367Z,71.27
2022-09-11T22:37:23.681Z,71.53
2022-09-11T22:39:55.660Z,71.70
2022-09-11T22:42:27.453Z,71.31
2022-09-11T22:45:00.080Z,71.24
2022-09-11T22:47:32.114Z,71.12
2022-09-11T22:50:04.110Z,71.44
2022-09-11T22:52:37.417Z,71.62
2022-09-11T22:55:12.631Z,71.21
2022-09-11T22:57:44.404Z,71.02
2022-09-11T23:00:21.604Z,71.02
2022-09-11T23:02:53.378Z,70.83
2022-09-11T23:05:43.664Z,71.04
2022-09-11T23:08:15.437Z,70.84
2022-09-11T23:10:49.221Z,70.93
2022-09-11T23:13:20.984Z,70.89
2022-09-11T23:15:53.393Z,70.97
2022-09-11T23:18:26.119Z,70.84
2022-09-11T23:21:05.066Z,70.91
2022-09-11T23:23:41.057Z,70.86
2022-09-11T23:26:14.443Z,70.88
2022-09-11T23:28:51.632Z,70.84
2022-09-11T23:31:27.464Z,70.77
2022-09-11T23:34:01.205Z,70.58
2022-09-11T23:36:34.011Z,70.78
2022-09-11T23:39:05.856Z,70.65
2022-09-11T23:41:39.746Z,70.70
2022-09-11T23:44:11.577Z,70.75
2022-09-11T23:46:43.350Z,70.72
2022-09-11T23:49:16.112Z,70.80
2022-09-11T23:51:51.327Z,70.65
2022-09-11T23:54:23.312Z,70.46
2022-09-11T23:56:55.423Z,70.45
2022-09-11T23:59:27.208Z,70.30
